Port Charlotte, Florida
Current Conditions -  °F | °C
As of 6:53 AM on Saturday 25 Oct 2014 (Local Time) from KPGD Reporting Station
Clear Clear  
Wind Chill: 63°   Ceiling: Unl
Heat Index: 63°   Visibility: 10mi
Dew Point: 57°   Wind: 9mph
Humidity: 81%   Direction: 10°N
Pressure: 29.98"   Gusts: NA
Location:  26.98°N, 82.1°W
Report Text: KPGD 251053Z 01008KT 10SM CLR 17/14 A2998 RMK AO2 SLP151 T01720139
Loading
Personal Weather Stations






























Interactive Weather Map
Tropical Storm Tracking
New forecast layout! Learn more

10-Day Weather Forecast

Advertisements
Track Severe Weather on mobile